createdAt,value
2022-12-23T00:01:27.792Z,98063.00
2022-12-23T00:03:01.100Z,98072.00
2022-12-23T00:04:34.413Z,98073.00
2022-12-23T00:06:13.718Z,98088.00
2022-12-23T00:07:45.914Z,98078.00
2022-12-23T00:09:19.190Z,98084.00
2022-12-23T00:10:53.889Z,98092.00
2022-12-23T00:12:44.968Z,98090.00
2022-12-23T00:14:35.742Z,98086.00
2022-12-23T00:16:12.250Z,98091.00
2022-12-23T00:17:47.119Z,98084.00
2022-12-23T00:19:20.605Z,98084.00
2022-12-23T00:21:03.319Z,98082.00
2022-12-23T00:22:58.921Z,98070.00
2022-12-23T00:24:32.250Z,98081.00
2022-12-23T00:26:05.266Z,98081.00
2022-12-23T00:27:38.795Z,98081.00
2022-12-23T00:29:12.112Z,98073.00
2022-12-23T00:30:50.780Z,98076.00
2022-12-23T00:32:29.941Z,98074.00
2022-12-23T00:34:03.071Z,98084.00
2022-12-23T00:35:35.443Z,98084.00
2022-12-23T00:37:14.942Z,98090.00
2022-12-23T00:39:23.172Z,98082.00
2022-12-23T00:41:13.940Z,98074.00
2022-12-23T00:42:55.809Z,98075.00
2022-12-23T00:44:29.140Z,98076.00
2022-12-23T00:46:02.209Z,98080.00
2022-12-23T00:47:53.376Z,98081.00
2022-12-23T00:49:44.582Z,98097.00
2022-12-23T00:51:17.792Z,98090.00
2022-12-23T00:52:53.796Z,98084.00
2022-12-23T00:54:32.178Z,98083.00
2022-12-23T00:56:05.862Z,98089.00
2022-12-23T00:57:39.175Z,98091.00
2022-12-23T00:59:12.461Z,98097.00
2022-12-23T01:01:04.348Z,98090.00
2022-12-23T01:02:57.834Z,98100.00
2022-12-23T01:04:48.775Z,98097.00
2022-12-23T01:06:22.023Z,98088.00
2022-12-23T01:07:57.046Z,98089.00
2022-12-23T01:09:31.662Z,98080.00
2022-12-23T01:11:06.519Z,98087.00
2022-12-23T01:12:39.983Z,98100.00
2022-12-23T01:14:13.416Z,98101.00
2022-12-23T01:15:46.015Z,98096.00
2022-12-23T01:17:19.372Z,98091.00
2022-12-23T01:18:54.096Z,98108.00
2022-12-23T01:20:27.274Z,98095.00
2022-12-23T01:22:00.367Z,98106.00
2022-12-23T01:23:34.735Z,98099.00
2022-12-23T01:25:10.829Z,98106.00
2022-12-23T01:26:44.165Z,98108.00
2022-12-23T01:28:17.249Z,98105.00
2022-12-23T01:29:50.391Z,98105.00
2022-12-23T01:31:23.558Z,98118.00
2022-12-23T01:32:56.853Z,98108.00
2022-12-23T01:34:36.781Z,98107.00
2022-12-23T01:36:14.152Z,98117.00
2022-12-23T01:37:47.355Z,98119.00
2022-12-23T01:39:20.586Z,98125.00
2022-12-23T01:40:56.029Z,98123.00
2022-12-23T01:42:44.490Z,98126.00
2022-12-23T01:44:50.746Z,98124.00
2022-12-23T01:46:23.970Z,98129.00
2022-12-23T01:48:00.907Z,98125.00
2022-12-23T01:49:33.154Z,98124.00
2022-12-23T01:51:15.817Z,98133.00
2022-12-23T01:53:06.523Z,98134.00
2022-12-23T01:54:41.511Z,98133.00
2022-12-23T01:56:23.891Z,98123.00
2022-12-23T01:58:03.754Z,98128.00
2022-12-23T01:59:55.065Z,98127.00
2022-12-23T02:01:47.545Z,98129.00
2022-12-23T02:03:38.672Z,98140.00
2022-12-23T02:05:12.999Z,98135.00
2022-12-23T02:07:07.862Z,98144.00
2022-12-23T02:08:58.795Z,98139.00
2022-12-23T02:10:45.495Z,98144.00
2022-12-23T02:12:45.155Z,98141.00
2022-12-23T02:14:56.111Z,98144.00
2022-12-23T02:16:38.813Z,98149.00
2022-12-23T02:18:46.226Z,98148.00
2022-12-23T02:21:02.565Z,98143.00
2022-12-23T02:23:06.364Z,98149.00
2022-12-23T02:25:26.158Z,98156.00
2022-12-23T02:27:15.196Z,98147.00
2022-12-23T02:29:21.131Z,98152.00
2022-12-23T02:31:09.673Z,98158.00
2022-12-23T02:33:31.536Z,98148.00
2022-12-23T02:35:13.096Z,98149.00
2022-12-23T02:37:00.089Z,98157.00
2022-12-23T02:38:44.256Z,98166.00
2022-12-23T02:40:32.975Z,98152.00
2022-12-23T02:42:16.512Z,98156.00
2022-12-23T02:43:57.740Z,98159.00
2022-12-23T02:45:40.242Z,98155.00
2022-12-23T02:47:22.457Z,98156.00
2022-12-23T02:49:04.621Z,98155.00
2022-12-23T02:50:41.017Z,98156.00
2022-12-23T02:52:19.445Z,98157.00
2022-12-23T02:53:58.312Z,98164.00
2022-12-23T02:55:37.637Z,98161.00
2022-12-23T02:57:15.456Z,98168.00
2022-12-23T02:58:56.649Z,98175.00
2022-12-23T03:00:31.751Z,98172.00
2022-12-23T03:02:05.150Z,98168.00
2022-12-23T03:03:42.364Z,98170.00
2022-12-23T03:05:28.081Z,98186.00
2022-12-23T03:07:07.441Z,98187.00
2022-12-23T03:08:45.412Z,98179.00
2022-12-23T03:10:36.531Z,98179.00
2022-12-23T03:12:23.522Z,98189.00
2022-12-23T03:14:34.622Z,98179.00
2022-12-23T03:16:19.224Z,98188.00
2022-12-23T03:18:05.718Z,98187.00
2022-12-23T03:19:50.904Z,98190.00
2022-12-23T03:21:32.763Z,98189.00
2022-12-23T03:23:18.189Z,98195.00
2022-12-23T03:25:03.535Z,98190.00
2022-12-23T03:26:45.836Z,98191.00
2022-12-23T03:28:28.049Z,98198.00
2022-12-23T03:30:08.104Z,98202.00
2022-12-23T03:31:43.722Z,98207.00
2022-12-23T03:33:23.283Z,98195.00
2022-12-23T03:35:01.369Z,98196.00
2022-12-23T03:36:39.858Z,98217.00
2022-12-23T03:38:17.578Z,98214.00
2022-12-23T03:39:59.711Z,98216.00
2022-12-23T03:41:40.820Z,98221.00
2022-12-23T03:43:21.502Z,98219.00
2022-12-23T03:45:36.549Z,98218.00
2022-12-23T03:46:59.333Z,98229.00
2022-12-23T03:48:38.769Z,98229.00
2022-12-23T03:50:19.365Z,98229.00
2022-12-23T03:51:59.232Z,98225.00
2022-12-23T03:53:37.295Z,98224.00
2022-12-23T03:55:18.091Z,98227.00
2022-12-23T03:56:58.063Z,98230.00
2022-12-23T03:58:41.510Z,98230.00
2022-12-23T04:00:15.243Z,98236.00
2022-12-23T04:02:01.449Z,98229.00
2022-12-23T04:03:40.826Z,98223.00
2022-12-23T04:05:27.348Z,98222.00
2022-12-23T04:07:12.175Z,98221.00
2022-12-23T04:08:49.468Z,98218.00
2022-12-23T04:10:24.962Z,98213.00
2022-12-23T04:11:59.033Z,98214.00
2022-12-23T04:13:33.140Z,98226.00
2022-12-23T04:15:12.905Z,98218.00
2022-12-23T04:16:47.714Z,98212.00
2022-12-23T04:18:21.226Z,98221.00
2022-12-23T04:19:55.068Z,98221.00
2022-12-23T04:21:29.585Z,98223.00
2022-12-23T04:23:02.775Z,98232.00
2022-12-23T04:24:35.910Z,98220.00
2022-12-23T04:26:09.061Z,98222.00
2022-12-23T04:27:42.764Z,98225.00
2022-12-23T04:29:14.969Z,98222.00
2022-12-23T04:30:48.130Z,98224.00
2022-12-23T04:32:21.191Z,98227.00
2022-12-23T04:33:54.281Z,98235.00
2022-12-23T04:35:26.533Z,98231.00
2022-12-23T04:37:01.067Z,98232.00
2022-12-23T04:38:34.211Z,98217.00
2022-12-23T04:40:10.212Z,98211.00
2022-12-23T04:41:43.600Z,98210.00
2022-12-23T04:43:16.821Z,98218.00
2022-12-23T04:44:49.059Z,98217.00
2022-12-23T04:46:22.514Z,98212.00
2022-12-23T04:47:56.141Z,98223.00
2022-12-23T04:49:29.313Z,98222.00
2022-12-23T04:51:03.459Z,98223.00
2022-12-23T04:52:38.132Z,98222.00
2022-12-23T04:54:11.258Z,98224.00
2022-12-23T04:55:43.575Z,98230.00
2022-12-23T04:57:17.922Z,98229.00
2022-12-23T04:58:51.324Z,98219.00
2022-12-23T05:00:24.572Z,98233.00
2022-12-23T05:01:57.203Z,98231.00
2022-12-23T05:03:30.629Z,98233.00
2022-12-23T05:05:04.080Z,98236.00
2022-12-23T05:06:38.302Z,98233.00
2022-12-23T05:08:12.945Z,98231.00
2022-12-23T05:09:46.133Z,98234.00
2022-12-23T05:11:19.406Z,98231.00
2022-12-23T05:12:52.831Z,98238.00
2022-12-23T05:14:26.363Z,98247.00
2022-12-23T05:15:59.809Z,98242.00
2022-12-23T05:17:33.175Z,98235.00
2022-12-23T05:19:06.715Z,98251.00
2022-12-23T05:20:39.973Z,98247.00
2022-12-23T05:22:12.267Z,98249.00
2022-12-23T05:23:46.932Z,98247.00
2022-12-23T05:25:19.251Z,98243.00
2022-12-23T05:26:59.487Z,98258.00
2022-12-23T05:28:34.679Z,98258.00
2022-12-23T05:30:09.969Z,98252.00
2022-12-23T05:31:43.399Z,98247.00
2022-12-23T05:33:17.268Z,98250.00
2022-12-23T05:34:50.816Z,98241.00
2022-12-23T05:36:24.206Z,98247.00
2022-12-23T05:37:57.960Z,98247.00
2022-12-23T05:39:32.583Z,98247.00
2022-12-23T05:41:06.581Z,98239.00
2022-12-23T05:42:39.693Z,98247.00
2022-12-23T05:44:13.005Z,98252.00
2022-12-23T05:45:47.079Z,98255.00
2022-12-23T05:47:20.375Z,98250.00
2022-12-23T05:48:53.585Z,98246.00
2022-12-23T05:50:26.832Z,98243.00
2022-12-23T05:52:00.122Z,98241.00
2022-12-23T05:53:33.553Z,98246.00
2022-12-23T05:55:10.132Z,98238.00
2022-12-23T05:56:43.429Z,98257.00
2022-12-23T05:58:16.458Z,98252.00
2022-12-23T05:59:49.643Z,98252.00
2022-12-23T06:01:22.737Z,98256.00
2022-12-23T06:02:56.050Z,98257.00
2022-12-23T06:04:30.029Z,98263.00
2022-12-23T06:06:03.183Z,98272.00
2022-12-23T06:07:35.402Z,98282.00
2022-12-23T06:09:08.722Z,98271.00
2022-12-23T06:10:43.165Z,98271.00
2022-12-23T06:12:16.304Z,98279.00
2022-12-23T06:13:49.410Z,98286.00
2022-12-23T06:15:22.841Z,98283.00
2022-12-23T06:16:55.147Z,98292.00
2022-12-23T06:18:29.822Z,98292.00
2022-12-23T06:20:03.267Z,98288.00
2022-12-23T06:21:36.419Z,98302.00
2022-12-23T06:23:08.879Z,98301.00
2022-12-23T06:24:43.017Z,98296.00
2022-12-23T06:26:17.760Z,98306.00
2022-12-23T06:27:51.259Z,98302.00
2022-12-23T06:29:24.616Z,98300.00
2022-12-23T06:30:58.449Z,98289.00
2022-12-23T06:32:37.937Z,98293.00
2022-12-23T06:34:11.924Z,98298.00
2022-12-23T06:35:45.064Z,98300.00
2022-12-23T06:37:17.867Z,98300.00
2022-12-23T06:38:51.488Z,98297.00
2022-12-23T06:40:25.343Z,98303.00
2022-12-23T06:42:00.150Z,98300.00
2022-12-23T06:43:33.425Z,98306.00
2022-12-23T06:45:07.947Z,98291.00
2022-12-23T06:46:41.060Z,98294.00
2022-12-23T06:48:14.783Z,98286.00
2022-12-23T06:49:47.957Z,98292.00
2022-12-23T06:51:21.532Z,98291.00
2022-12-23T06:52:56.859Z,98291.00
2022-12-23T06:54:30.362Z,98293.00
2022-12-23T06:56:05.095Z,98300.00
2022-12-23T06:57:39.458Z,98299.00
2022-12-23T06:59:12.663Z,98284.00
2022-12-23T07:00:46.906Z,98292.00
2022-12-23T07:02:21.167Z,98293.00
2022-12-23T07:03:54.548Z,98288.00
2022-12-23T07:05:35.037Z,98294.00
2022-12-23T07:07:10.697Z,98287.00
2022-12-23T07:08:43.852Z,98294.00
2022-12-23T07:10:17.856Z,98285.00
2022-12-23T07:11:52.240Z,98297.00
2022-12-23T07:13:29.126Z,98289.00
2022-12-23T07:15:02.597Z,98296.00
2022-12-23T07:16:35.945Z,98297.00
2022-12-23T07:18:09.023Z,98292.00
2022-12-23T07:19:42.491Z,98302.00
2022-12-23T07:21:24.648Z,98301.00
2022-12-23T07:23:01.989Z,98311.00
2022-12-23T07:24:35.134Z,98313.00
2022-12-23T07:26:08.445Z,98310.00
2022-12-23T07:27:41.900Z,98324.00
2022-12-23T07:29:16.489Z,98318.00
2022-12-23T07:30:49.781Z,98324.00
2022-12-23T07:32:23.116Z,98326.00
2022-12-23T07:33:56.470Z,98335.00
2022-12-23T07:35:30.974Z,98334.00
2022-12-23T07:37:04.360Z,98335.00
2022-12-23T07:38:37.841Z,98349.00
2022-12-23T07:40:12.988Z,98360.00
2022-12-23T07:41:46.222Z,98361.00
2022-12-23T07:43:19.449Z,98367.00
2022-12-23T07:44:53.896Z,98375.00
2022-12-23T07:46:27.063Z,98378.00
2022-12-23T07:48:02.628Z,98382.00
2022-12-23T07:49:35.848Z,98381.00
2022-12-23T07:51:09.157Z,98376.00
2022-12-23T07:52:42.382Z,98382.00
2022-12-23T07:54:15.628Z,98370.00
2022-12-23T07:55:54.618Z,98369.00
2022-12-23T07:57:29.951Z,98383.00
2022-12-23T07:59:03.261Z,98369.00
2022-12-23T08:00:37.990Z,98371.00
2022-12-23T08:02:12.361Z,98371.00
2022-12-23T08:03:47.544Z,98374.00
2022-12-23T08:05:21.224Z,98375.00
2022-12-23T08:06:54.494Z,98365.00
2022-12-23T08:08:27.595Z,98367.00
2022-12-23T08:10:01.295Z,98366.00
2022-12-23T08:11:34.717Z,98360.00
2022-12-23T08:13:10.291Z,98355.00
2022-12-23T08:14:46.267Z,98349.00
2022-12-23T08:16:21.274Z,98357.00
2022-12-23T08:18:05.150Z,98349.00
2022-12-23T08:19:38.528Z,98352.00
2022-12-23T08:21:17.517Z,98348.00
2022-12-23T08:22:50.863Z,98366.00
2022-12-23T08:24:24.061Z,98358.00
2022-12-23T08:26:02.317Z,98345.00
2022-12-23T08:27:35.723Z,98358.00
2022-12-23T08:29:09.149Z,98342.00
2022-12-23T08:30:42.498Z,98355.00
2022-12-23T08:32:17.297Z,98361.00
2022-12-23T08:33:54.325Z,98353.00
2022-12-23T08:35:27.871Z,98358.00
2022-12-23T08:37:01.332Z,98356.00
2022-12-23T08:38:35.946Z,98357.00
2022-12-23T08:40:11.054Z,98355.00
2022-12-23T08:41:48.861Z,98348.00
2022-12-23T08:43:22.481Z,98353.00
2022-12-23T08:44:55.684Z,98349.00
2022-12-23T08:46:29.801Z,98356.00
2022-12-23T08:48:04.657Z,98345.00
2022-12-23T08:49:37.692Z,98341.00
2022-12-23T08:51:16.566Z,98342.00
2022-12-23T08:52:49.914Z,98338.00
2022-12-23T08:54:23.750Z,98345.00
2022-12-23T08:55:57.167Z,98343.00
2022-12-23T08:57:30.379Z,98346.00
2022-12-23T08:59:04.839Z,98349.00
2022-12-23T09:00:38.790Z,98345.00
2022-12-23T09:02:12.985Z,98348.00
2022-12-23T09:03:48.945Z,98346.00
2022-12-23T09:05:22.421Z,98342.00
2022-12-23T09:06:55.619Z,98349.00
2022-12-23T09:08:28.763Z,98354.00
2022-12-23T09:10:01.953Z,98347.00
2022-12-23T09:11:36.123Z,98346.00
2022-12-23T09:13:10.380Z,98349.00
2022-12-23T09:14:47.685Z,98356.00
2022-12-23T09:16:22.424Z,98357.00
2022-12-23T09:17:57.286Z,98357.00
2022-12-23T09:19:33.039Z,98346.00
2022-12-23T09:21:08.112Z,98340.00
2022-12-23T09:22:41.334Z,98342.00
2022-12-23T09:24:15.275Z,98344.00
2022-12-23T09:25:48.396Z,98360.00
2022-12-23T09:27:21.535Z,98361.00
2022-12-23T09:28:55.302Z,98355.00
2022-12-23T09:30:28.486Z,98350.00
2022-12-23T09:32:05.326Z,98349.00
2022-12-23T09:33:39.397Z,98355.00
2022-12-23T09:35:13.872Z,98346.00
2022-12-23T09:36:53.419Z,98353.00
2022-12-23T09:38:28.567Z,98347.00
2022-12-23T09:40:01.891Z,98340.00
2022-12-23T09:41:55.906Z,98330.00
2022-12-23T09:43:43.088Z,98343.00
2022-12-23T09:45:40.625Z,98345.00
2022-12-23T09:47:19.164Z,98330.00
2022-12-23T09:49:01.869Z,98335.00
2022-12-23T09:50:36.778Z,98344.00
2022-12-23T09:52:17.558Z,98337.00
2022-12-23T09:54:01.646Z,98335.00
2022-12-23T09:55:46.853Z,98321.00
2022-12-23T09:57:23.850Z,98328.00
2022-12-23T09:59:08.088Z,98326.00
2022-12-23T10:00:54.621Z,98327.00
2022-12-23T10:02:46.263Z,98323.00
2022-12-23T10:04:48.078Z,98320.00
2022-12-23T10:06:28.183Z,98321.00
2022-12-23T10:08:12.271Z,98322.00
2022-12-23T10:09:50.310Z,98315.00
2022-12-23T10:11:26.940Z,98315.00
2022-12-23T10:13:26.939Z,98310.00
2022-12-23T10:15:05.221Z,98308.00
2022-12-23T10:16:46.481Z,98310.00
2022-12-23T10:18:28.894Z,98305.00
2022-12-23T10:20:06.703Z,98300.00
2022-12-23T10:21:48.729Z,98297.00
2022-12-23T10:23:32.153Z,98304.00
2022-12-23T10:25:15.986Z,98300.00
2022-12-23T10:26:55.184Z,98300.00
2022-12-23T10:28:29.782Z,98295.00
2022-12-23T10:30:33.675Z,98287.00
2022-12-23T10:32:18.480Z,98288.00
2022-12-23T10:34:05.471Z,98279.00
2022-12-23T10:35:56.041Z,98273.00
2022-12-23T10:37:40.945Z,98266.00
2022-12-23T10:39:25.991Z,98255.00
2022-12-23T10:41:09.619Z,98252.00
2022-12-23T10:42:57.987Z,98254.00
2022-12-23T10:45:15.631Z,98243.00
2022-12-23T10:47:02.590Z,98239.00
2022-12-23T10:48:54.983Z,98227.00
2022-12-23T10:50:53.171Z,98225.00
2022-12-23T10:52:32.174Z,98220.00
2022-12-23T10:54:21.678Z,98230.00
2022-12-23T10:55:57.177Z,98225.00
2022-12-23T10:57:34.080Z,98214.00
2022-12-23T10:59:15.323Z,98227.00
2022-12-23T11:00:55.900Z,98236.00
2022-12-23T11:02:49.940Z,98231.00
2022-12-23T11:04:33.677Z,98229.00
2022-12-23T11:06:10.559Z,98209.00
2022-12-23T11:07:47.204Z,98207.00
2022-12-23T11:09:24.761Z,98211.00
2022-12-23T11:11:00.626Z,98210.00
2022-12-23T11:12:42.802Z,98212.00
2022-12-23T11:14:36.657Z,98200.00
2022-12-23T11:16:25.774Z,98196.00
2022-12-23T11:18:02.902Z,98202.00
2022-12-23T11:19:36.758Z,98202.00
2022-12-23T11:21:17.336Z,98201.00
2022-12-23T11:22:55.530Z,98210.00
2022-12-23T11:24:35.415Z,98199.00
2022-12-23T11:26:15.129Z,98197.00
2022-12-23T11:27:48.695Z,98196.00
2022-12-23T11:29:25.825Z,98188.00
2022-12-23T11:31:05.774Z,98184.00
2022-12-23T11:32:39.298Z,98179.00
2022-12-23T11:34:18.829Z,98176.00
2022-12-23T11:36:08.886Z,98174.00
2022-12-23T11:37:44.338Z,98176.00
2022-12-23T11:39:26.461Z,98178.00
2022-12-23T11:41:00.189Z,98169.00
2022-12-23T11:42:35.900Z,98174.00
2022-12-23T11:44:21.239Z,98179.00
2022-12-23T11:46:20.031Z,98171.00
2022-12-23T11:47:53.845Z,98170.00
2022-12-23T11:49:31.270Z,98167.00
2022-12-23T11:51:05.625Z,98159.00
2022-12-23T11:52:50.815Z,98158.00
2022-12-23T11:54:25.517Z,98149.00
2022-12-23T11:56:02.086Z,98158.00
2022-12-23T11:57:43.943Z,98156.00
2022-12-23T11:59:32.442Z,98157.00
2022-12-23T12:01:17.619Z,98157.00
2022-12-23T12:02:54.113Z,98156.00
2022-12-23T12:04:32.593Z,98157.00
2022-12-23T12:06:08.068Z,98154.00
2022-12-23T12:07:44.510Z,98140.00
2022-12-23T12:09:19.098Z,98131.00
2022-12-23T12:11:02.539Z,98137.00
2022-12-23T12:12:35.848Z,98133.00
2022-12-23T12:14:09.727Z,98124.00
2022-12-23T12:15:47.587Z,98111.00
2022-12-23T12:17:30.292Z,98111.00
2022-12-23T12:19:14.646Z,98099.00
2022-12-23T12:20:54.382Z,98086.00
2022-12-23T12:22:38.714Z,98079.00
2022-12-23T12:24:20.166Z,98081.00
2022-12-23T12:26:02.878Z,98072.00
2022-12-23T12:27:41.155Z,98075.00
2022-12-23T12:29:19.676Z,98076.00
2022-12-23T12:31:02.913Z,98064.00
2022-12-23T12:32:46.671Z,98058.00
2022-12-23T12:34:38.565Z,98058.00
2022-12-23T12:36:19.393Z,98034.00
2022-12-23T12:38:01.614Z,98032.00
2022-12-23T12:39:43.955Z,98035.00
2022-12-23T12:41:29.137Z,98030.00
2022-12-23T12:43:17.721Z,98017.00
2022-12-23T12:45:06.598Z,98016.00
2022-12-23T12:46:47.362Z,98018.00
2022-12-23T12:48:37.235Z,98006.00
2022-12-23T12:50:19.246Z,98007.00
2022-12-23T12:52:03.705Z,98010.00
2022-12-23T12:53:42.607Z,98006.00
2022-12-23T12:55:24.671Z,98015.00
2022-12-23T12:57:02.241Z,98015.00
2022-12-23T12:58:35.667Z,98015.00
2022-12-23T13:00:17.983Z,98018.00
2022-12-23T13:02:16.405Z,98028.00
2022-12-23T13:04:23.205Z,98018.00
2022-12-23T13:06:18.427Z,98014.00
2022-12-23T13:08:12.081Z,98014.00
2022-12-23T13:10:00.288Z,98009.00
2022-12-23T13:11:45.467Z,98008.00
2022-12-23T13:13:39.679Z,98017.00
2022-12-23T13:15:24.465Z,98002.00
2022-12-23T13:17:07.329Z,98002.00
2022-12-23T13:18:55.243Z,98003.00
2022-12-23T13:20:41.404Z,98006.00
2022-12-23T13:22:19.318Z,97999.00
2022-12-23T13:24:04.208Z,97986.00
2022-12-23T13:25:45.217Z,97988.00
2022-12-23T13:27:27.140Z,97987.00
2022-12-23T13:29:32.788Z,97980.00
2022-12-23T13:31:23.504Z,97982.00
2022-12-23T13:33:29.879Z,97972.00
2022-12-23T13:35:25.645Z,97966.00
2022-12-23T13:37:13.544Z,97957.00
2022-12-23T13:39:16.499Z,97950.00
2022-12-23T13:41:06.435Z,97948.00
2022-12-23T13:42:45.728Z,97947.00
2022-12-23T13:44:21.803Z,97951.00
2022-12-23T13:45:59.483Z,97940.00
2022-12-23T13:47:48.074Z,97938.00
2022-12-23T13:49:37.481Z,97929.00
2022-12-23T13:51:21.487Z,97927.00
2022-12-23T13:53:14.124Z,97907.00
2022-12-23T13:54:56.458Z,97882.00
2022-12-23T13:56:39.511Z,97882.00
2022-12-23T13:58:18.761Z,97880.00
2022-12-23T14:00:06.213Z,97879.00
2022-12-23T14:01:58.555Z,97882.00
2022-12-23T14:03:35.976Z,97878.00
2022-12-23T14:05:41.421Z,97880.00
2022-12-23T14:07:22.841Z,97876.00
2022-12-23T14:08:57.065Z,97871.00
2022-12-23T14:10:32.336Z,97858.00
2022-12-23T14:12:24.512Z,97848.00
2022-12-23T14:14:02.518Z,97837.00
2022-12-23T14:16:09.291Z,97833.00
2022-12-23T14:18:02.751Z,97824.00
2022-12-23T14:20:08.571Z,97823.00
2022-12-23T14:21:55.824Z,97818.00
2022-12-23T14:23:53.225Z,97830.00
2022-12-23T14:25:56.709Z,97828.00
2022-12-23T14:27:46.547Z,97833.00
2022-12-23T14:29:44.270Z,97817.00
2022-12-23T14:31:40.348Z,97813.00
2022-12-23T14:33:26.475Z,97815.00
2022-12-23T14:35:28.280Z,97809.00
2022-12-23T14:37:37.265Z,97802.00
2022-12-23T14:39:32.542Z,97800.00
2022-12-23T14:41:38.879Z,97797.00
2022-12-23T14:43:34.664Z,97790.00
2022-12-23T14:45:35.905Z,97790.00
2022-12-23T14:47:40.516Z,97788.00
2022-12-23T14:49:39.852Z,97773.00
2022-12-23T14:51:33.208Z,97772.00
2022-12-23T14:53:24.400Z,97771.00
2022-12-23T14:55:50.015Z,97782.00
2022-12-23T14:57:28.720Z,97793.00
2022-12-23T14:59:18.372Z,97786.00
2022-12-23T15:01:00.550Z,97786.00
2022-12-23T15:02:40.766Z,97778.00
2022-12-23T15:04:25.495Z,97779.00
2022-12-23T15:06:06.143Z,97782.00
2022-12-23T15:07:43.223Z,97771.00
2022-12-23T15:09:29.047Z,97783.00
2022-12-23T15:11:05.072Z,97785.00
2022-12-23T15:12:42.055Z,97783.00
2022-12-23T15:14:29.765Z,97780.00
2022-12-23T15:16:03.184Z,97769.00
2022-12-23T15:17:37.955Z,97772.00
2022-12-23T15:19:22.745Z,97772.00
2022-12-23T15:21:01.519Z,97774.00
2022-12-23T15:22:35.271Z,97769.00
2022-12-23T15:24:16.367Z,97769.00
2022-12-23T15:25:51.291Z,97760.00
2022-12-23T15:27:27.930Z,97765.00
2022-12-23T15:29:02.457Z,97770.00
2022-12-23T15:30:47.248Z,97757.00
2022-12-23T15:32:25.285Z,97766.00
2022-12-23T15:34:03.420Z,97748.00
2022-12-23T15:35:41.349Z,97767.00
2022-12-23T15:37:29.114Z,97768.00
2022-12-23T15:39:08.668Z,97766.00
2022-12-23T15:40:41.849Z,97768.00
2022-12-23T15:42:23.424Z,97765.00
2022-12-23T15:44:01.649Z,97774.00
2022-12-23T15:45:39.733Z,97770.00
2022-12-23T15:47:29.492Z,97778.00
2022-12-23T15:49:03.475Z,97761.00
2022-12-23T15:50:42.405Z,97775.00
2022-12-23T15:52:20.424Z,97765.00
2022-12-23T15:53:59.705Z,97760.00
2022-12-23T15:55:36.523Z,97765.00
2022-12-23T15:57:21.488Z,97761.00
2022-12-23T15:58:57.648Z,97760.00
2022-12-23T16:00:40.071Z,97754.00
2022-12-23T16:02:59.065Z,97757.00
2022-12-23T16:04:21.443Z,97751.00
2022-12-23T16:06:06.361Z,97756.00
2022-12-23T16:07:42.549Z,97754.00
2022-12-23T16:09:34.071Z,97760.00
2022-12-23T16:11:16.127Z,97749.00
2022-12-23T16:12:52.449Z,97753.00
2022-12-23T16:14:35.742Z,97761.00
2022-12-23T16:16:34.287Z,97749.00
2022-12-23T16:18:22.081Z,97753.00
2022-12-23T16:20:14.304Z,97747.00
2022-12-23T16:21:50.389Z,97750.00
2022-12-23T16:23:29.254Z,97757.00
2022-12-23T16:25:12.901Z,97760.00
2022-12-23T16:26:46.310Z,97760.00
2022-12-23T16:28:24.402Z,97750.00
2022-12-23T16:30:03.440Z,97757.00
2022-12-23T16:31:37.980Z,97756.00
2022-12-23T16:33:35.811Z,97772.00
2022-12-23T16:35:24.613Z,97779.00
2022-12-23T16:36:59.727Z,97759.00
2022-12-23T16:38:32.941Z,97757.00
2022-12-23T16:40:14.983Z,97760.00
2022-12-23T16:41:48.379Z,97761.00
2022-12-23T16:43:23.572Z,97771.00
2022-12-23T16:44:56.835Z,97767.00
2022-12-23T16:46:37.170Z,97771.00
2022-12-23T16:48:19.720Z,97769.00
2022-12-23T16:49:52.934Z,97767.00
2022-12-23T16:51:28.862Z,97768.00
2022-12-23T16:53:03.536Z,97776.00
2022-12-23T16:54:36.813Z,97773.00
2022-12-23T16:56:13.073Z,97770.00
2022-12-23T16:57:47.160Z,97773.00
2022-12-23T16:59:21.045Z,97771.00
2022-12-23T17:00:54.611Z,97769.00
2022-12-23T17:02:30.366Z,97775.00
2022-12-23T17:04:03.674Z,97784.00
2022-12-23T17:05:36.967Z,97776.00
2022-12-23T17:07:13.483Z,97777.00
2022-12-23T17:08:48.984Z,97786.00
2022-12-23T17:10:22.272Z,97787.00
2022-12-23T17:11:56.426Z,97785.00
2022-12-23T17:13:29.752Z,97801.00
2022-12-23T17:15:03.464Z,97795.00
2022-12-23T17:16:36.830Z,97798.00
2022-12-23T17:18:15.071Z,97815.00
2022-12-23T17:19:48.181Z,97804.00
2022-12-23T17:21:26.629Z,97816.00
2022-12-23T17:23:01.209Z,97800.00
2022-12-23T17:24:36.009Z,97808.00
2022-12-23T17:26:11.684Z,97819.00
2022-12-23T17:27:45.272Z,97809.00
2022-12-23T17:29:18.590Z,97810.00
2022-12-23T17:30:56.015Z,97791.00
2022-12-23T17:32:29.607Z,97817.00
2022-12-23T17:34:03.210Z,97819.00
2022-12-23T17:35:36.772Z,97817.00
2022-12-23T17:37:16.399Z,97813.00
2022-12-23T17:38:50.583Z,97838.00
2022-12-23T17:40:25.038Z,97830.00
2022-12-23T17:41:58.540Z,97830.00
2022-12-23T17:43:31.759Z,97837.00
2022-12-23T17:45:06.254Z,97832.00
2022-12-23T17:46:39.591Z,97826.00
2022-12-23T17:48:19.740Z,97844.00
2022-12-23T17:49:54.492Z,97842.00
2022-12-23T17:51:28.502Z,97837.00
2022-12-23T17:53:02.035Z,97843.00
2022-12-23T17:54:35.341Z,97844.00
2022-12-23T17:56:14.755Z,97844.00
2022-12-23T17:57:48.409Z,97849.00
2022-12-23T17:59:22.068Z,97855.00
2022-12-23T18:00:55.367Z,97863.00
2022-12-23T18:02:32.697Z,97865.00
2022-12-23T18:04:06.257Z,97855.00
2022-12-23T18:05:39.535Z,97860.00
2022-12-23T18:07:14.164Z,97869.00
2022-12-23T18:08:47.707Z,97882.00
2022-12-23T18:10:26.433Z,97884.00
2022-12-23T18:12:01.116Z,97887.00
2022-12-23T18:13:34.636Z,97878.00
2022-12-23T18:15:19.292Z,97897.00
2022-12-23T18:16:53.092Z,97882.00
2022-12-23T18:18:35.626Z,97872.00
2022-12-23T18:20:19.513Z,97889.00
2022-12-23T18:21:53.667Z,97890.00
2022-12-23T18:23:31.641Z,97905.00
2022-12-23T18:25:06.178Z,97901.00
2022-12-23T18:26:40.517Z,97903.00
2022-12-23T18:28:15.468Z,97904.00
2022-12-23T18:29:50.498Z,97911.00
2022-12-23T18:31:27.174Z,97921.00
2022-12-23T18:33:00.741Z,97912.00
2022-12-23T18:34:33.947Z,97917.00
2022-12-23T18:36:07.804Z,97918.00
2022-12-23T18:37:41.033Z,97928.00
2022-12-23T18:39:14.494Z,97919.00
2022-12-23T18:40:49.785Z,97928.00
2022-12-23T18:42:23.401Z,97925.00
2022-12-23T18:43:58.468Z,97936.00
2022-12-23T18:45:34.535Z,97929.00
2022-12-23T18:47:07.828Z,97943.00
2022-12-23T18:48:41.128Z,97937.00
2022-12-23T18:50:14.528Z,97938.00
2022-12-23T18:51:47.943Z,97943.00
2022-12-23T18:53:25.200Z,97939.00
2022-12-23T18:54:58.681Z,97938.00
2022-12-23T18:56:31.935Z,97950.00
2022-12-23T18:58:05.366Z,97951.00
2022-12-23T18:59:39.943Z,97939.00
2022-12-23T19:01:14.022Z,97942.00
2022-12-23T19:02:48.624Z,97941.00
2022-12-23T19:04:22.353Z,97944.00
2022-12-23T19:06:01.666Z,97942.00
2022-12-23T19:07:35.372Z,97953.00
2022-12-23T19:09:09.182Z,97962.00
2022-12-23T19:10:42.924Z,97955.00
2022-12-23T19:12:16.096Z,97966.00
2022-12-23T19:13:49.370Z,97965.00
2022-12-23T19:15:24.318Z,97966.00
2022-12-23T19:17:00.005Z,97971.00
2022-12-23T19:18:33.451Z,97975.00
2022-12-23T19:20:09.344Z,97961.00
2022-12-23T19:21:43.352Z,97982.00
2022-12-23T19:23:17.637Z,97984.00
2022-12-23T19:25:04.467Z,97977.00
2022-12-23T19:26:39.069Z,97974.00
2022-12-23T19:28:13.360Z,97983.00
2022-12-23T19:29:46.576Z,97975.00